Latest Weather Observations for Warwick

IDQ60901

Issued at 3:51 pm EST Tuesday 1 September 2015 (issued every 10 minutes, with the page automatically refreshed every 10 minutes)

About weather observations | Map of Brisbane area stations | Latest observations for Brisbane area | Other Formats
Station Details ID: 041525 Name: WARWICK Lat: -28.21 Lon: 152.10 Height: 475.4 m
Data from the previous 72 hours. | See also: Recent months at Warwick
Date/Time
EST
Tmp

°C
App
Tmp
°C
Dew
Point
°C
Rel
Hum
%
Delta-T

°C
Wind Press
QNH
hPa
Press
MSL
hPa
Rain
since
9 am
mm
Dir
 
Spd
km/h
Gust
km/h
Spd
kts
Gust
kts
01/03:30pm 19.2 13.6 -2.5 23 9.3 W 17 30 9 16 1014.6 1013.7 0.0
01/03:00pm 19.2 13.2 -3.0 22 9.4 W 19 30 10 16 1014.6 1013.7 0.0
01/02:30pm 19.6 13.3 -3.8 20 9.8 W 20 33 11 18 1014.8 1013.9 0.0
01/02:00pm 19.5 13.8 -3.6 20 9.7 W 17 33 9 18 1015.1 1014.1 0.0
01/01:30pm 19.4 13.4 -3.4 21 9.6 W 19 32 10 17 1015.3 1014.3 0.0
01/01:00pm 19.7 13.6 -4.1 19 9.9 WNW 19 32 10 17 1015.5 1014.5 0.0
01/12:30pm 19.0 12.9 -4.3 20 9.6 W 19 28 10 15 1015.8 1014.9 0.0
01/12:00pm 19.2 14.4 -2.6 22 9.3 W 13 24 7 13 1016.1 1015.2 0.0
01/11:30am 18.0 12.9 -2.2 25 8.6 WNW 15 28 8 15 1016.4 1015.5 0.0
01/11:00am 16.9 11.7 -0.2 31 7.5 WNW 17 26 9 14 1016.9 1016.0 0.0
01/10:30am 15.7 10.2 0.8 36 6.6 WNW 19 24 10 13 1017.4 1016.4 0.0
01/10:00am 14.2 9.7 2.2 44 5.4 NW 15 20 8 11 1017.7 1016.8 0.0
01/09:30am 13.4 9.4 3.1 49 4.7 NW 13 17 7 9 1017.7 1017.5 0.0
01/09:00am 12.6 9.5 3.7 54 4.1 NW 9 17 5 9 1017.7 1017.5 0.0
01/08:30am 10.9 8.2 3.9 62 3.2 NW 7 13 4 7 1017.7 1017.5 0.0
01/08:00am 7.0 5.6 3.8 80 1.4 CALM 0 0 0 0 1017.6 1017.4 0.0
01/07:30am 4.0 2.4 2.3 89 0.7 CALM 0 0 0 0 1017.4 1017.2 0.0
01/07:00am 2.7 1.0 2.0 95 0.3 CALM 0 0 0 0 1017.3 1017.1 0.0
01/06:30am 2.2 0.4 1.2 93 0.4 CALM 0 0 0 0 1017.0 1016.9 0.0
01/06:00am 1.4 -0.4 0.9 96 0.2 CALM 0 0 0 0 1016.7 1016.6 0.0
01/05:30am 1.2 -0.7 0.7 96 0.2 CALM 0 0 0 0 1016.5 1016.4 0.0
01/05:00am 1.5 -0.3 1.2 98 0.1 CALM 0 0 0 0 1016.1 1015.9 0.0
01/04:30am 2.3 0.5 1.3 93 0.4 CALM 0 0 0 0 1015.8 1015.6 0.0
01/04:00am 1.7 -0.1 0.9 94 0.3 CALM 0 0 0 0 1015.8 1015.6 0.0
01/03:30am 2.2 0.5 1.7 96 0.2 CALM 0 0 0 0 1015.8 1015.6 0.0
01/03:00am 2.3 0.6 1.8 96 0.2 CALM 0 0 0 0 1016.0 1015.8 0.0
01/02:30am 3.5 1.9 2.3 92 0.5 CALM 0 0 0 0 1016.2 1016.1 0.0
01/02:00am 4.9 2.6 3.0 87 0.8 WNW 4 7 2 4 1016.3 1016.2 0.0
01/01:30am 3.2 1.6 2.7 96 0.2 CALM 0 0 0 0 1016.4 1016.3 0.0
01/01:00am 6.3 4.0 3.0 79 1.4 WNW 4 9 2 5 1016.7 1016.6 0.0
01/12:30am 5.5 2.8 2.9 83 1.1 NNE 6 7 3 4 1016.9 1016.8 0.0
01/12:00am 4.8 2.2 3.4 91 0.6 ENE 6 11 3 6 1017.3 1017.1 0.0
 
Date/Time
EST
Tmp

°C
App
Tmp
°C
Dew
Point
°C
Rel
Hum
%
Delta-T

°C
Wind Press
QNH
hPa
Press
MSL
hPa
Rain
since
9 am
mm
Dir
 
Spd
km/h
Gust
km/h
Spd
kts
Gust
kts
31/11:30pm 7.0 5.1 2.8 74 1.8 NW 2 6 1 3 1017.3 1017.1 0.0
31/11:00pm 7.6 5.8 3.7 76 1.7 WNW 2 9 1 5 1017.4 1017.2 0.0
31/10:30pm 10.1 7.1 4.2 67 2.7 WNW 9 11 5 6 1017.5 1017.3 0.0
31/10:00pm 10.5 7.4 3.4 61 3.2 WNW 9 13 5 7 1017.5 1017.3 0.0
31/09:30pm 8.9 7.2 4.0 71 2.2 WNW 2 7 1 4 1017.4 1017.2 0.0
31/09:00pm 10.5 8.0 3.9 63 3.0 WNW 6 9 3 5 1017.3 1017.1 0.0
31/08:30pm 10.8 7.7 3.7 61 3.2 W 9 13 5 7 1017.0 1016.9 0.0
31/08:00pm 10.9 7.9 3.9 62 3.2 W 9 13 5 7 1016.9 1016.8 0.0
31/07:30pm 11.8 8.6 3.2 55 3.9 W 9 17 5 9 1016.5 1016.4 0.0
31/07:00pm 11.5 8.5 3.9 59 3.5 W 9 13 5 7 1015.9 1015.7 0.0
31/06:30pm 12.7 9.5 3.0 51 4.4 WNW 9 13 5 7 1015.6 1015.4 0.0
31/06:00pm 12.3 9.8 3.8 56 3.9 WNW 6 9 3 5 1015.3 1015.1 0.0
31/05:30pm 14.1 10.4 2.1 44 5.4 WSW 11 19 6 10 1014.8 1014.7 0.0
31/05:00pm 16.2 12.2 2.6 40 6.3 W 13 22 7 12 1014.4 1014.3 0.0
31/04:30pm 17.0 13.0 2.7 38 6.7 W 13 22 7 12 1014.2 1014.0 0.0
31/04:00pm 17.5 11.6 -0.5 29 7.9 SW 20 28 11 15 1014.0 1013.8 0.0
31/03:30pm 18.0 12.1 -0.6 28 8.2 WSW 20 35 11 19 1013.9 1013.7 0.0
31/03:00pm 18.1 12.9 -0.1 29 8.1 WSW 17 28 9 15 1014.0 1013.8 0.0
31/02:30pm 18.1 12.8 -0.8 28 8.3 WSW 17 30 9 16 1014.2 1014.0 0.0
31/02:00pm 17.8 11.8 -1.8 26 8.4 SW 20 35 11 19 1014.4 1014.3 0.0
31/01:30pm 18.2 12.3 -2.6 24 8.8 WSW 19 30 10 16 1014.5 1014.4 0.0
31/01:00pm 18.1 12.4 -7.0 17 9.7 WSW 15 24 8 13 1014.7 1014.6 0.0
31/12:30pm 17.3 12.4 -0.5 30 7.8 W 15 24 8 13 1014.9 1014.8 0.0
31/12:00pm 16.5 12.3 1.5 36 6.8 WNW 13 22 7 12 1015.3 1015.1 0.0
31/11:30am 15.8 11.3 0.0 34 6.9 NW 13 20 7 11 1015.8 1015.6 0.0
31/11:00am 16.2 11.1 -1.8 29 7.6 W 15 20 8 11 1016.3 1016.2 0.0
31/10:30am 15.3 11.6 2.4 42 5.9 WSW 11 20 6 11 1016.7 1016.6 0.0
31/10:00am 14.9 12.7 3.3 45 5.4 SSW 4 13 2 7 1017.3 1017.1 0.0
31/09:30am 12.7 11.4 4.1 56 4.0 CALM 0 0 0 0 1017.5 1017.3 0.0
31/09:00am 10.4 9.1 4.3 66 2.8 CALM 0 0 0 0 1017.7 1017.5 0.0
31/08:30am 8.6 7.3 3.9 72 2.1 CALM 0 0 0 0 1017.7 1017.5 0.0
31/08:00am 6.0 4.5 3.0 81 1.3 CALM 0 0 0 0 1017.7 1017.5 0.0
31/07:30am 4.6 3.0 2.7 87 0.8 CALM 0 0 0 0 1017.6 1017.4 0.0
31/07:00am 2.6 0.9 1.6 93 0.4 CALM 0 0 0 0 1017.5 1017.3 0.0
31/06:30am 1.9 0.1 1.1 94 0.3 CALM 0 0 0 0 1017.1 1017.0 0.0
31/06:00am 2.2 0.5 1.7 96 0.2 CALM 0 0 0 0 1016.9 1016.8 0.0
31/05:30am 1.5 -0.4 0.7 94 0.3 CALM 0 0 0 0 1016.7 1016.6 0.0
31/05:00am 1.5 -0.3 1.5 100 0.0 CALM 0 0 0 0 1016.5 1016.4 0.0
31/04:30am 2.2 0.4 1.4 94 0.3 CALM 0 0 0 0 1016.3 1016.2 0.0
31/04:00am 2.2 -0.7 1.7 96 0.2 NE 6 9 3 5 1016.3 1016.2 0.0
31/03:30am 2.1 0.4 2.1 100 0.0 CALM 0 0 0 0 1016.5 1016.4 0.0
31/03:00am 2.6 0.9 2.1 96 0.2 CALM 0 0 0 0 1016.8 1016.7 0.0
31/02:30am 3.4 1.8 2.4 93 0.4 CALM 0 0 0 0 1016.9 1016.8 0.0
31/02:00am 4.1 2.6 2.9 92 0.5 CALM 0 0 0 0 1016.9 1016.8 0.0
31/01:30am 5.1 3.3 3.2 87 0.8 NW 2 9 1 5 1017.3 1017.1 0.0
31/01:00am 6.1 4.7 3.3 82 1.2 CALM 0 0 0 0 1017.5 1017.3 0.0
31/12:30am 5.9 4.0 3.1 82 1.2 SSE 2 9 1 5 1017.7 1017.5 0.0
31/12:00am 9.2 5.9 2.3 62 3.0 WNW 9 15 5 8 1017.9 1017.7 0.0
 
Date/Time
EST
Tmp

°C
App
Tmp
°C
Dew
Point
°C
Rel
Hum
%
Delta-T

°C
Wind Press
QNH
hPa
Press
MSL
hPa
Rain
since
9 am
mm
Dir
 
Spd
km/h
Gust
km/h
Spd
kts
Gust
kts
30/11:30pm 9.2 5.9 2.5 63 2.9 WNW 9 13 5 7 1018.2 1018.1 0.0
30/11:00pm 8.6 5.9 3.9 72 2.1 WNW 7 9 4 5 1018.4 1018.3 0.0
30/10:30pm 9.6 6.0 3.0 63 2.9 WNW 11 17 6 9 1018.3 1018.2 0.0
30/10:00pm 9.2 5.7 3.6 68 2.5 WNW 11 13 6 7 1018.3 1018.2 0.0
30/09:30pm 10.1 6.9 2.9 61 3.2 WNW 9 11 5 6 1018.2 1018.1 0.0
30/09:00pm 10.2 7.4 3.3 62 3.1 WNW 7 11 4 6 1017.9 1017.7 0.0
30/08:30pm 11.0 7.0 2.9 57 3.6 W 13 24 7 13 1017.5 1017.3 0.0
30/08:00pm 11.5 7.2 3.0 56 3.8 W 15 24 8 13 1017.1 1017.0 0.0
30/07:30pm 11.7 7.8 3.6 57 3.7 W 13 19 7 10 1016.8 1016.7 0.0
30/07:00pm 12.1 8.3 3.8 57 3.8 W 13 20 7 11 1016.5 1016.4 0.0
30/06:30pm 12.3 8.9 3.8 56 3.9 W 11 15 6 8 1016.1 1015.9 0.0
30/06:00pm 12.7 9.4 4.6 58 3.8 W 11 15 6 8 1015.7 1015.5 0.0
30/05:30pm 14.5 10.3 3.6 48 5.1 WSW 15 22 8 12 1015.5 1015.3 0.0
30/05:00pm 15.8 10.8 3.5 43 5.8 WSW 19 28 10 15 1014.9 1014.8 0.0
30/04:30pm 16.7 12.0 3.4 41 6.3 WSW 17 24 9 13 1014.7 1014.6 0.0
30/04:00pm 17.1 12.0 3.1 39 6.6 WSW 19 32 10 17 1014.7 1014.6 0.0
30/03:30pm 17.5 12.8 3.1 38 6.8 WSW 17 26 9 14 1014.7 1014.6 0.0
30/03:00pm 17.5 12.4 3.1 38 6.8 WSW 19 32 10 17 1014.7 1014.6 0.0
30/02:30pm 18.0 13.7 3.3 37 7.0 WSW 15 28 8 15 1014.9 1014.8 0.0
30/02:00pm 17.8 12.5 1.8 34 7.4 WSW 19 28 10 15 1015.2 1015.0 0.0
30/01:30pm 17.4 12.1 2.0 35 7.1 WSW 19 30 10 16 1015.4 1015.2 0.0
30/01:00pm 16.6 11.7 2.0 37 6.7 W 17 24 9 13 1015.8 1015.6 0.0
30/12:30pm 17.0 12.1 2.3 37 6.8 W 17 28 9 15 1016.2 1016.1 0.0
30/12:00pm 16.6 11.4 0.4 33 7.2 WSW 17 30 9 16 1016.6 1016.5 0.0
30/11:30am 16.0 11.4 1.7 38 6.5 WSW 15 22 8 12 1017.3 1017.1 0.0
30/11:00am 15.5 10.3 2.4 41 6.0 WSW 19 32 10 17 1017.9 1017.7 0.0
30/10:30am 15.0 10.9 4.2 48 5.1 W 15 26 8 14 1018.2 1018.1 0.0
30/10:00am 14.3 10.2 4.1 50 4.8 W 15 28 8 15 1018.6 1018.5 0.0
30/09:30am 13.6 10.0 5.0 56 4.1 WNW 13 24 7 13 1018.9 1018.8 0.0
30/09:00am 12.9 9.5 6.1 63 3.3 W 13 22 7 12 1018.8 1018.7 0.6
30/08:30am 11.7 9.2 6.6 71 2.5 W 9 15 5 8 1018.9 1018.8 0.6
30/08:00am 10.9 9.8 7.0 77 1.9 SSW 2 11 1 6 1018.8 1018.7 0.6
30/07:30am 9.7 9.1 7.4 85 1.1 CALM 0 0 0 0 1018.7 1018.6 0.4
30/07:00am 7.3 6.5 6.7 96 0.3 CALM 0 0 0 0 1018.6 1018.5 0.4
30/06:30am 6.2 5.3 6.2 100 0.0 CALM 0 0 0 0 1018.2 1018.1 0.4
30/06:00am 6.9 5.7 6.3 96 0.3 E 2 11 1 6 1018.1 1018.0 0.4
30/05:30am 6.3 5.5 6.3 100 0.0 CALM 0 0 0 0 1018.0 1017.9 0.4
30/05:00am 8.8 6.9 6.7 87 1.0 NNW 6 9 3 5 1017.6 1017.4 0.4
30/04:30am 8.7 6.6 6.8 88 0.9 NW 7 11 4 6 1017.5 1017.3 0.4
30/04:00am 9.6 7.6 7.1 84 1.2 NW 7 11 4 6 1017.6 1017.4 0.4
30/03:30am 10.4 7.6 6.9 79 1.7 WNW 11 13 6 7 1017.6 1017.4 0.4
30/03:00am 10.3 8.2 8.1 86 1.1 NW 9 15 5 8 1017.8 1017.6 0.4
30/02:30am 10.4 8.4 8.6 89 0.9 NW 9 13 5 7 1017.8 1017.6 0.4
30/02:00am 9.7 9.4 8.7 93 0.5 CALM 0 0 0 0 1018.1 1018.0 0.4
30/01:30am 10.5 10.4 9.5 93 0.5 CALM 0 0 0 0 1018.6 1018.5 0.4
30/01:00am 11.1 10.3 9.7 91 0.7 SW 4 9 2 5 1018.7 1018.6 0.4
30/12:30am 11.5 10.3 9.4 87 1.1 NNW 6 7 3 4 1019.2 1019.1 0.4
30/12:00am 11.7 11.6 9.6 87 1.1 CALM 0 9 0 5 1019.5 1019.3 0.4
 
Date/Time
EST
Tmp

°C
App
Tmp
°C
Dew
Point
°C
Rel
Hum
%
Delta-T

°C
Wind Press
QNH
hPa
Press
MSL
hPa
Rain
since
9 am
mm
Dir
 
Spd
km/h
Gust
km/h
Spd
kts
Gust
kts
29/11:30pm 11.6 11.2 9.9 89 0.9 NNW 2 9 1 5 1020.1 1020.0 0.4
29/11:00pm 11.3 11.4 10.3 94 0.5 CALM 0 0 0 0 1019.6 1019.4 0.4
29/10:30pm 11.7 11.9 10.4 92 0.7 CALM 0 0 0 0 1019.9 1019.8 0.4
29/10:00pm 11.6 10.7 10.8 95 0.4 W 6 9 3 5 1020.1 1020.0 0.4
29/09:30pm 11.7 12.0 10.9 95 0.4 CALM 0 2 0 1 1019.9 1019.8 0.4
29/09:00pm 11.8 11.3 10.9 94 0.5 SW 4 9 2 5 1020.4 1020.3 0.4
29/08:30pm 11.7 11.6 10.9 95 0.4 ENE 2 9 1 5 1020.1 1020.0 0.4
29/08:00pm 11.8 11.0 10.9 94 0.5 W 6 11 3 6 1020.6 1020.5 0.4
29/07:30pm 11.9 11.7 10.4 90 0.8 NE 2 9 1 5 1020.2 1020.1 0.4
29/07:00pm 11.7 10.3 10.8 94 0.5 NNE 9 13 5 7 1020.3 1020.2 0.4
29/06:30pm 11.9 10.5 10.8 93 0.6 NNW 9 17 5 9 1020.3 1020.2 0.4
29/06:00pm 11.9 8.6 10.8 93 0.6 N 19 24 10 13 1019.8 1019.6 0.4
29/05:30pm 12.2 8.8 10.7 90 0.8 NNW 19 26 10 14 1020.2 1020.1 0.2
29/05:00pm 12.7 9.1 10.4 86 1.2 N 20 28 11 15 1019.9 1019.8 0.0
29/04:30pm 14.2 9.8 8.8 70 2.8 NNW 22 33 12 18 1019.7 1019.5 0.0
29/04:00pm 17.4 14.8 6.3 48 5.6 WNW 9 15 5 8 1019.0 1018.9 0.0

Latest Capital City Observations: Canberra | Sydney | Melbourne | Brisbane | Adelaide | Perth | Hobart | Darwin

Other Formats:

Comma delimited format used in spreadsheet applications
http://www.bom.gov.au/fwo/IDQ60901/IDQ60901.94555.axf

JavaScript Object Notation format (JSON) in row-major order
http://www.bom.gov.au/fwo/IDQ60901/IDQ60901.94555.json